Mannford, Oklahoma
Current Conditions -  °F | °C
As of 8:55 PM on Monday 22 Dec 2014 (Local Time) from KOWP Reporting Station
Clear Clear  
Wind Chill: 49°   Ceiling: Unl
Heat Index: 49°   Visibility: 10mi
Dew Point: 39°   Wind: 0mph
Humidity: 71%   Direction: NA
Pressure: 29.66"   Gusts: NA
Location:  36.13°N, 96.35°W
Report Text: KOWP 230255Z AUTO 00000KT 10SM CLR 09/04 A2966 RMK AO2 T00920041
Loading
Personal Weather Stations






























Interactive Weather Map New forecast layout! Learn more

10-Day Weather Forecast

Advertisements
Track Severe Weather on mobile